sensor_id;sensor_type;location;lat;lon;timestamp;P1;durP1;ratioP1;P2;durP2;ratioP2
11835;SDS011;5977;51.972;7.640;2023-04-01T00:00:32;144.70;;;46.93;;
11835;SDS011;5977;51.972;7.640;2023-04-01T00:03:00;144.30;;;46.70;;
11835;SDS011;5977;51.972;7.640;2023-04-01T00:05:28;145.47;;;47.27;;
11835;SDS011;5977;51.972;7.640;2023-04-01T00:07:57;145.20;;;47.10;;
11835;SDS011;5977;51.972;7.640;2023-04-01T00:10:26;145.37;;;47.23;;
11835;SDS011;5977;51.972;7.640;2023-04-01T00:12:54;144.43;;;46.87;;
11835;SDS011;5977;51.972;7.640;2023-04-01T00:15:21;145.17;;;47.07;;
11835;SDS011;5977;51.972;7.640;2023-04-01T00:17:49;144.83;;;46.87;;
11835;SDS011;5977;51.972;7.640;2023-04-01T00:20:17;145.13;;;47.20;;
11835;SDS011;5977;51.972;7.640;2023-04-01T00:22:45;144.27;;;46.80;;
11835;SDS011;5977;51.972;7.640;2023-04-01T00:25:13;144.63;;;46.83;;
11835;SDS011;5977;51.972;7.640;2023-04-01T00:27:43;144.83;;;46.93;;
11835;SDS011;5977;51.972;7.640;2023-04-01T00:30:11;145.13;;;47.20;;
11835;SDS011;5977;51.972;7.640;2023-04-01T00:32:39;144.87;;;47.00;;
11835;SDS011;5977;51.972;7.640;2023-04-01T00:35:07;144.67;;;46.97;;
11835;SDS011;5977;51.972;7.640;2023-04-01T00:37:36;144.63;;;46.97;;
11835;SDS011;5977;51.972;7.640;2023-04-01T00:40:06;144.73;;;47.00;;
11835;SDS011;5977;51.972;7.640;2023-04-01T00:42:46;144.23;;;46.77;;
11835;SDS011;5977;51.972;7.640;2023-04-01T00:45:25;144.87;;;47.00;;
11835;SDS011;5977;51.972;7.640;2023-04-01T00:47:58;145.07;;;47.10;;
11835;SDS011;5977;51.972;7.640;2023-04-01T00:50:28;144.77;;;47.00;;
11835;SDS011;5977;51.972;7.640;2023-04-01T00:52:59;144.63;;;46.90;;
11835;SDS011;5977;51.972;7.640;2023-04-01T00:55:28;144.90;;;47.07;;
11835;SDS011;5977;51.972;7.640;2023-04-01T00:58:01;144.80;;;47.00;;
11835;SDS011;5977;51.972;7.640;2023-04-01T01:00:32;145.03;;;47.23;;
11835;SDS011;5977;51.972;7.640;2023-04-01T01:03:01;143.93;;;46.70;;
11835;SDS011;5977;51.972;7.640;2023-04-01T01:05:30;143.93;;;46.60;;
11835;SDS011;5977;51.972;7.640;2023-04-01T01:08:15;144.77;;;47.17;;
11835;SDS011;5977;51.972;7.640;2023-04-01T01:10:50;144.40;;;46.80;;
11835;SDS011;5977;51.972;7.640;2023-04-01T01:13:20;144.47;;;46.80;;
11835;SDS011;5977;51.972;7.640;2023-04-01T01:15:55;144.50;;;46.90;;
11835;SDS011;5977;51.972;7.640;2023-04-01T01:18:26;144.33;;;46.83;;
11835;SDS011;5977;51.972;7.640;2023-04-01T01:21:18;144.67;;;46.90;;
11835;SDS011;5977;51.972;7.640;2023-04-01T01:24:22;143.90;;;46.77;;
11835;SDS011;5977;51.972;7.640;2023-04-01T01:27:08;144.73;;;47.00;;
11835;SDS011;5977;51.972;7.640;2023-04-01T01:35:49;144.30;;;46.90;;
11835;SDS011;5977;51.972;7.640;2023-04-01T01:38:21;143.27;;;46.40;;
11835;SDS011;5977;51.972;7.640;2023-04-01T01:40:58;144.50;;;46.97;;
11835;SDS011;5977;51.972;7.640;2023-04-01T01:43:29;144.00;;;46.73;;
11835;SDS011;5977;51.972;7.640;2023-04-01T01:46:00;143.80;;;46.70;;
11835;SDS011;5977;51.972;7.640;2023-04-01T01:48:34;144.30;;;46.80;;
11835;SDS011;5977;51.972;7.640;2023-04-01T01:51:04;144.00;;;46.77;;
11835;SDS011;5977;51.972;7.640;2023-04-01T01:53:33;144.43;;;46.93;;
11835;SDS011;5977;51.972;7.640;2023-04-01T01:56:01;144.20;;;46.80;;
11835;SDS011;5977;51.972;7.640;2023-04-01T01:58:35;144.30;;;46.90;;
11835;SDS011;5977;51.972;7.640;2023-04-01T02:01:10;144.20;;;46.87;;
11835;SDS011;5977;51.972;7.640;2023-04-01T02:03:42;144.57;;;46.97;;
11835;SDS011;5977;51.972;7.640;2023-04-01T02:06:15;143.93;;;46.60;;
11835;SDS011;5977;51.972;7.640;2023-04-01T02:08:46;144.13;;;46.87;;
11835;SDS011;5977;51.972;7.640;2023-04-01T02:11:18;143.87;;;46.67;;
11835;SDS011;5977;51.972;7.640;2023-04-01T02:13:51;143.90;;;46.70;;
11835;SDS011;5977;51.972;7.640;2023-04-01T02:16:21;144.50;;;46.93;;
11835;SDS011;5977;51.972;7.640;2023-04-01T02:18:55;144.23;;;46.90;;
11835;SDS011;5977;51.972;7.640;2023-04-01T02:21:27;144.47;;;46.90;;
11835;SDS011;5977;51.972;7.640;2023-04-01T02:23:59;143.90;;;46.73;;
11835;SDS011;5977;51.972;7.640;2023-04-01T02:26:29;143.90;;;46.80;;
11835;SDS011;5977;51.972;7.640;2023-04-01T02:28:57;143.47;;;46.50;;
11835;SDS011;5977;51.972;7.640;2023-04-01T02:31:28;144.50;;;46.97;;
11835;SDS011;5977;51.972;7.640;2023-04-01T02:33:56;144.10;;;46.77;;
11835;SDS011;5977;51.972;7.640;2023-04-01T02:36:25;143.87;;;46.73;;
11835;SDS011;5977;51.972;7.640;2023-04-01T02:38:54;143.77;;;46.67;;
11835;SDS011;5977;51.972;7.640;2023-04-01T02:41:28;143.97;;;46.73;;
11835;SDS011;5977;51.972;7.640;2023-04-01T02:43:56;144.50;;;47.00;;
11835;SDS011;5977;51.972;7.640;2023-04-01T02:46:25;144.20;;;46.87;;
11835;SDS011;5977;51.972;7.640;2023-04-01T02:48:53;143.73;;;46.70;;
11835;SDS011;5977;51.972;7.640;2023-04-01T02:51:21;144.57;;;46.97;;
11835;SDS011;5977;51.972;7.640;2023-04-01T02:53:49;144.23;;;46.80;;
11835;SDS011;5977;51.972;7.640;2023-04-01T02:56:18;143.33;;;46.43;;
11835;SDS011;5977;51.972;7.640;2023-04-01T02:58:47;143.97;;;46.77;;
11835;SDS011;5977;51.972;7.640;2023-04-01T03:01:15;144.30;;;46.90;;
11835;SDS011;5977;51.972;7.640;2023-04-01T03:03:43;143.73;;;46.60;;
11835;SDS011;5977;51.972;7.640;2023-04-01T03:06:12;143.87;;;46.70;;
11835;SDS011;5977;51.972;7.640;2023-04-01T03:08:42;144.30;;;46.80;;
11835;SDS011;5977;51.972;7.640;2023-04-01T03:11:11;144.17;;;46.87;;
11835;SDS011;5977;51.972;7.640;2023-04-01T03:13:41;144.00;;;46.93;;
11835;SDS011;5977;51.972;7.640;2023-04-01T03:16:09;143.47;;;46.57;;
11835;SDS011;5977;51.972;7.640;2023-04-01T03:18:37;143.73;;;46.63;;
11835;SDS011;5977;51.972;7.640;2023-04-01T03:21:12;143.97;;;46.70;;
11835;SDS011;5977;51.972;7.640;2023-04-01T03:23:41;143.63;;;46.63;;
11835;SDS011;5977;51.972;7.640;2023-04-01T03:26:09;144.03;;;46.87;;
11835;SDS011;5977;51.972;7.640;2023-04-01T03:28:37;143.57;;;46.70;;
11835;SDS011;5977;51.972;7.640;2023-04-01T03:31:06;143.93;;;46.87;;
11835;SDS011;5977;51.972;7.640;2023-04-01T03:33:41;144.03;;;46.90;;
11835;SDS011;5977;51.972;7.640;2023-04-01T03:36:09;144.00;;;46.77;;
11835;SDS011;5977;51.972;7.640;2023-04-01T03:38:39;142.87;;;46.43;;
11835;SDS011;5977;51.972;7.640;2023-04-01T03:41:07;143.83;;;46.80;;
11835;SDS011;5977;51.972;7.640;2023-04-01T03:43:39;143.00;;;46.50;;
11835;SDS011;5977;51.972;7.640;2023-04-01T03:46:09;143.30;;;46.43;;
11835;SDS011;5977;51.972;7.640;2023-04-01T03:48:37;144.37;;;47.00;;
11835;SDS011;5977;51.972;7.640;2023-04-01T03:51:06;143.67;;;46.60;;
11835;SDS011;5977;51.972;7.640;2023-04-01T03:53:34;143.40;;;46.67;;
11835;SDS011;5977;51.972;7.640;2023-04-01T03:56:04;144.33;;;46.87;;
11835;SDS011;5977;51.972;7.640;2023-04-01T03:58:34;144.10;;;46.80;;
11835;SDS011;5977;51.972;7.640;2023-04-01T04:01:14;143.37;;;46.57;;
11835;SDS011;5977;51.972;7.640;2023-04-01T04:03:43;144.27;;;46.90;;
11835;SDS011;5977;51.972;7.640;2023-04-01T04:06:13;144.03;;;46.83;;
11835;SDS011;5977;51.972;7.640;2023-04-01T04:08:41;143.40;;;46.70;;
11835;SDS011;5977;51.972;7.640;2023-04-01T04:11:10;143.63;;;46.63;;
11835;SDS011;5977;51.972;7.640;2023-04-01T04:13:41;143.47;;;46.67;;
11835;SDS011;5977;51.972;7.640;2023-04-01T04:16:09;143.70;;;46.73;;
11835;SDS011;5977;51.972;7.640;2023-04-01T04:18:44;143.43;;;46.47;;
11835;SDS011;5977;51.972;7.640;2023-04-01T04:21:12;143.10;;;46.50;;
11835;SDS011;5977;51.972;7.640;2023-04-01T04:23:41;143.60;;;46.60;;
11835;SDS011;5977;51.972;7.640;2023-04-01T04:26:12;143.40;;;46.60;;
11835;SDS011;5977;51.972;7.640;2023-04-01T04:28:46;143.60;;;46.60;;
11835;SDS011;5977;51.972;7.640;2023-04-01T04:31:17;143.70;;;46.60;;
11835;SDS011;5977;51.972;7.640;2023-04-01T04:33:48;143.20;;;46.53;;
11835;SDS011;5977;51.972;7.640;2023-04-01T04:36:16;143.63;;;46.70;;
11835;SDS011;5977;51.972;7.640;2023-04-01T04:38:45;143.50;;;46.60;;
11835;SDS011;5977;51.972;7.640;2023-04-01T04:41:13;142.97;;;46.33;;
11835;SDS011;5977;51.972;7.640;2023-04-01T04:43:50;143.03;;;46.50;;
11835;SDS011;5977;51.972;7.640;2023-04-01T04:46:20;143.27;;;46.57;;
11835;SDS011;5977;51.972;7.640;2023-04-01T04:48:56;143.43;;;46.60;;
11835;SDS011;5977;51.972;7.640;2023-04-01T04:51:24;143.87;;;46.90;;
11835;SDS011;5977;51.972;7.640;2023-04-01T04:53:53;143.13;;;46.50;;
11835;SDS011;5977;51.972;7.640;2023-04-01T04:56:31;143.00;;;46.53;;
11835;SDS011;5977;51.972;7.640;2023-04-01T04:59:04;143.53;;;46.80;;
11835;SDS011;5977;51.972;7.640;2023-04-01T05:01:41;143.07;;;46.43;;
11835;SDS011;5977;51.972;7.640;2023-04-01T05:04:11;143.23;;;46.60;;
11835;SDS011;5977;51.972;7.640;2023-04-01T05:06:39;143.30;;;46.50;;
11835;SDS011;5977;51.972;7.640;2023-04-01T05:09:06;143.40;;;46.53;;
11835;SDS011;5977;51.972;7.640;2023-04-01T05:11:35;143.37;;;46.50;;
11835;SDS011;5977;51.972;7.640;2023-04-01T05:14:03;143.77;;;46.73;;
11835;SDS011;5977;51.972;7.640;2023-04-01T05:16:31;143.60;;;46.53;;
11835;SDS011;5977;51.972;7.640;2023-04-01T05:18:59;142.93;;;46.50;;
11835;SDS011;5977;51.972;7.640;2023-04-01T05:21:29;143.73;;;46.80;;
11835;SDS011;5977;51.972;7.640;2023-04-01T05:23:57;143.37;;;46.57;;
11835;SDS011;5977;51.972;7.640;2023-04-01T05:26:25;143.63;;;46.77;;
11835;SDS011;5977;51.972;7.640;2023-04-01T05:28:53;143.20;;;46.57;;
11835;SDS011;5977;51.972;7.640;2023-04-01T05:31:21;143.37;;;46.63;;
11835;SDS011;5977;51.972;7.640;2023-04-01T05:33:50;143.53;;;46.77;;
11835;SDS011;5977;51.972;7.640;2023-04-01T05:36:19;143.90;;;46.80;;
11835;SDS011;5977;51.972;7.640;2023-04-01T05:38:49;143.07;;;46.57;;
11835;SDS011;5977;51.972;7.640;2023-04-01T05:41:18;143.83;;;46.80;;
11835;SDS011;5977;51.972;7.640;2023-04-01T05:43:46;143.50;;;46.77;;
11835;SDS011;5977;51.972;7.640;2023-04-01T05:46:34;143.53;;;46.60;;
11835;SDS011;5977;51.972;7.640;2023-04-01T05:49:09;143.23;;;46.63;;
11835;SDS011;5977;51.972;7.640;2023-04-01T05:51:37;143.70;;;46.93;;
11835;SDS011;5977;51.972;7.640;2023-04-01T05:54:08;143.80;;;46.83;;
11835;SDS011;5977;51.972;7.640;2023-04-01T05:56:37;143.90;;;46.97;;
11835;SDS011;5977;51.972;7.640;2023-04-01T05:59:05;143.90;;;47.00;;
11835;SDS011;5977;51.972;7.640;2023-04-01T06:01:32;144.23;;;46.87;;
11835;SDS011;5977;51.972;7.640;2023-04-01T06:04:00;143.57;;;46.73;;
11835;SDS011;5977;51.972;7.640;2023-04-01T06:06:29;143.90;;;46.83;;
11835;SDS011;5977;51.972;7.640;2023-04-01T06:09:10;143.73;;;46.80;;
11835;SDS011;5977;51.972;7.640;2023-04-01T06:11:50;143.50;;;46.70;;
11835;SDS011;5977;51.972;7.640;2023-04-01T06:14:31;143.73;;;46.73;;
11835;SDS011;5977;51.972;7.640;2023-04-01T06:17:13;143.33;;;46.70;;
11835;SDS011;5977;51.972;7.640;2023-04-01T06:19:50;143.33;;;46.73;;
11835;SDS011;5977;51.972;7.640;2023-04-01T06:25:35;143.07;;;46.50;;
11835;SDS011;5977;51.972;7.640;2023-04-01T06:28:27;144.30;;;47.10;;
11835;SDS011;5977;51.972;7.640;2023-04-01T06:31:17;143.27;;;46.63;;
11835;SDS011;5977;51.972;7.640;2023-04-01T06:34:26;143.47;;;46.67;;
11835;SDS011;5977;51.972;7.640;2023-04-01T06:37:12;143.60;;;46.87;;
11835;SDS011;5977;51.972;7.640;2023-04-01T06:39:56;143.70;;;46.90;;
11835;SDS011;5977;51.972;7.640;2023-04-01T06:42:38;143.67;;;46.80;;
11835;SDS011;5977;51.972;7.640;2023-04-01T06:45:36;143.77;;;46.90;;
11835;SDS011;5977;51.972;7.640;2023-04-01T06:48:47;143.93;;;47.07;;
11835;SDS011;5977;51.972;7.640;2023-04-01T06:51:42;143.63;;;46.77;;
11835;SDS011;5977;51.972;7.640;2023-04-01T06:54:36;144.10;;;47.07;;
11835;SDS011;5977;51.972;7.640;2023-04-01T06:57:28;143.83;;;46.87;;
11835;SDS011;5977;51.972;7.640;2023-04-01T07:00:02;144.23;;;46.90;;
11835;SDS011;5977;51.972;7.640;2023-04-01T07:02:34;144.13;;;46.87;;
11835;SDS011;5977;51.972;7.640;2023-04-01T07:05:08;143.57;;;46.77;;
11835;SDS011;5977;51.972;7.640;2023-04-01T07:07:40;143.93;;;46.93;;
11835;SDS011;5977;51.972;7.640;2023-04-01T07:10:13;144.10;;;46.93;;
11835;SDS011;5977;51.972;7.640;2023-04-01T07:13:24;143.60;;;46.67;;
11835;SDS011;5977;51.972;7.640;2023-04-01T07:16:03;144.17;;;47.03;;
11835;SDS011;5977;51.972;7.640;2023-04-01T07:18:40;145.10;;;47.40;;
11835;SDS011;5977;51.972;7.640;2023-04-01T07:21:15;143.90;;;46.93;;
11835;SDS011;5977;51.972;7.640;2023-04-01T07:23:54;143.90;;;46.97;;
11835;SDS011;5977;51.972;7.640;2023-04-01T07:26:35;144.17;;;47.03;;
11835;SDS011;5977;51.972;7.640;2023-04-01T07:29:09;144.50;;;47.17;;
11835;SDS011;5977;51.972;7.640;2023-04-01T07:31:45;144.43;;;47.17;;
11835;SDS011;5977;51.972;7.640;2023-04-01T07:34:35;144.27;;;47.10;;
11835;SDS011;5977;51.972;7.640;2023-04-01T07:37:14;144.00;;;46.97;;
11835;SDS011;5977;51.972;7.640;2023-04-01T07:39:47;143.77;;;46.80;;
11835;SDS011;5977;51.972;7.640;2023-04-01T07:42:34;144.20;;;47.07;;
11835;SDS011;5977;51.972;7.640;2023-04-01T07:45:13;144.37;;;47.13;;
11835;SDS011;5977;51.972;7.640;2023-04-01T07:47:54;144.57;;;47.10;;
11835;SDS011;5977;51.972;7.640;2023-04-01T07:50:29;144.67;;;47.27;;
11835;SDS011;5977;51.972;7.640;2023-04-01T07:53:03;144.27;;;47.00;;
11835;SDS011;5977;51.972;7.640;2023-04-01T07:55:41;144.07;;;47.03;;
11835;SDS011;5977;51.972;7.640;2023-04-01T07:58:16;143.67;;;46.80;;
11835;SDS011;5977;51.972;7.640;2023-04-01T08:00:56;143.97;;;46.83;;
11835;SDS011;5977;51.972;7.640;2023-04-01T08:03:42;143.83;;;47.00;;
11835;SDS011;5977;51.972;7.640;2023-04-01T08:06:27;143.97;;;46.87;;
11835;SDS011;5977;51.972;7.640;2023-04-01T08:09:07;144.53;;;47.03;;
11835;SDS011;5977;51.972;7.640;2023-04-01T08:12:12;145.03;;;47.40;;
11835;SDS011;5977;51.972;7.640;2023-04-01T08:15:02;143.63;;;46.83;;
11835;SDS011;5977;51.972;7.640;2023-04-01T08:18:01;144.20;;;47.00;;
11835;SDS011;5977;51.972;7.640;2023-04-01T08:20:36;144.10;;;46.83;;
11835;SDS011;5977;51.972;7.640;2023-04-01T08:23:11;143.97;;;47.03;;
11835;SDS011;5977;51.972;7.640;2023-04-01T08:25:44;144.33;;;47.00;;
11835;SDS011;5977;51.972;7.640;2023-04-01T08:28:21;144.73;;;47.30;;
11835;SDS011;5977;51.972;7.640;2023-04-01T08:30:56;144.00;;;46.97;;
11835;SDS011;5977;51.972;7.640;2023-04-01T08:33:29;144.70;;;47.20;;
11835;SDS011;5977;51.972;7.640;2023-04-01T08:36:08;144.43;;;47.00;;
11835;SDS011;5977;51.972;7.640;2023-04-01T08:38:42;144.30;;;46.97;;
11835;SDS011;5977;51.972;7.640;2023-04-01T08:51:02;143.67;;;46.73;;
11835;SDS011;5977;51.972;7.640;2023-04-01T08:54:04;144.20;;;47.10;;
11835;SDS011;5977;51.972;7.640;2023-04-01T08:56:47;144.17;;;46.93;;
11835;SDS011;5977;51.972;7.640;2023-04-01T08:59:28;144.07;;;46.90;;
11835;SDS011;5977;51.972;7.640;2023-04-01T09:02:38;144.00;;;46.90;;
11835;SDS011;5977;51.972;7.640;2023-04-01T09:05:35;144.10;;;46.93;;
11835;SDS011;5977;51.972;7.640;2023-04-01T09:08:15;144.33;;;47.13;;
11835;SDS011;5977;51.972;7.640;2023-04-01T09:10:58;144.23;;;46.93;;
11835;SDS011;5977;51.972;7.640;2023-04-01T09:14:11;144.23;;;47.00;;
11835;SDS011;5977;51.972;7.640;2023-04-01T09:17:21;144.23;;;46.97;;
11835;SDS011;5977;51.972;7.640;2023-04-01T09:20:24;144.63;;;47.17;;
11835;SDS011;5977;51.972;7.640;2023-04-01T09:23:14;144.03;;;46.90;;
11835;SDS011;5977;51.972;7.640;2023-04-01T09:26:06;144.73;;;47.13;;
11835;SDS011;5977;51.972;7.640;2023-04-01T09:28:45;144.80;;;47.20;;
11835;SDS011;5977;51.972;7.640;2023-04-01T09:31:37;144.87;;;47.33;;
11835;SDS011;5977;51.972;7.640;2023-04-01T09:34:53;144.47;;;47.10;;
11835;SDS011;5977;51.972;7.640;2023-04-01T09:37:30;144.67;;;47.10;;
11835;SDS011;5977;51.972;7.640;2023-04-01T09:40:21;144.57;;;47.13;;
11835;SDS011;5977;51.972;7.640;2023-04-01T09:43:14;144.27;;;47.00;;
11835;SDS011;5977;51.972;7.640;2023-04-01T09:45:55;144.83;;;47.30;;
11835;SDS011;5977;51.972;7.640;2023-04-01T09:48:39;144.63;;;47.10;;
11835;SDS011;5977;51.972;7.640;2023-04-01T09:51:31;144.60;;;47.17;;
11835;SDS011;5977;51.972;7.640;2023-04-01T09:54:09;144.43;;;47.13;;
11835;SDS011;5977;51.972;7.640;2023-04-01T09:56:52;144.53;;;47.03;;
11835;SDS011;5977;51.972;7.640;2023-04-01T10:00:04;144.63;;;47.10;;
11835;SDS011;5977;51.972;7.640;2023-04-01T10:03:11;144.73;;;47.20;;
11835;SDS011;5977;51.972;7.640;2023-04-01T10:15:39;144.07;;;46.87;;
11835;SDS011;5977;51.972;7.640;2023-04-01T10:18:43;145.40;;;47.50;;
11835;SDS011;5977;51.972;7.640;2023-04-01T10:27:30;144.57;;;47.10;;
11835;SDS011;5977;51.972;7.640;2023-04-01T10:33:50;144.73;;;47.20;;
11835;SDS011;5977;51.972;7.640;2023-04-01T10:36:43;144.97;;;47.23;;
11835;SDS011;5977;51.972;7.640;2023-04-01T10:39:46;145.10;;;47.30;;
11835;SDS011;5977;51.972;7.640;2023-04-01T10:42:58;144.77;;;47.07;;
11835;SDS011;5977;51.972;7.640;2023-04-01T10:49:12;144.23;;;46.93;;
11835;SDS011;5977;51.972;7.640;2023-04-01T10:52:18;144.80;;;47.13;;
11835;SDS011;5977;51.972;7.640;2023-04-01T10:55:35;144.80;;;47.10;;
11835;SDS011;5977;51.972;7.640;2023-04-01T10:58:47;145.00;;;47.27;;
11835;SDS011;5977;51.972;7.640;2023-04-01T11:02:12;145.23;;;47.37;;
11835;SDS011;5977;51.972;7.640;2023-04-01T11:12:20;145.43;;;47.40;;
11835;SDS011;5977;51.972;7.640;2023-04-01T11:15:31;145.67;;;47.43;;
11835;SDS011;5977;51.972;7.640;2023-04-01T11:18:43;146.07;;;47.63;;
11835;SDS011;5977;51.972;7.640;2023-04-01T11:21:47;145.83;;;47.40;;
11835;SDS011;5977;51.972;7.640;2023-04-01T11:24:46;146.90;;;47.83;;
11835;SDS011;5977;51.972;7.640;2023-04-01T11:27:53;145.73;;;47.53;;
11835;SDS011;5977;51.972;7.640;2023-04-01T11:33:53;146.13;;;47.67;;
11835;SDS011;5977;51.972;7.640;2023-04-01T11:36:33;146.23;;;47.80;;
11835;SDS011;5977;51.972;7.640;2023-04-01T11:39:19;145.37;;;47.30;;
11835;SDS011;5977;51.972;7.640;2023-04-01T11:42:14;146.27;;;47.70;;
11835;SDS011;5977;51.972;7.640;2023-04-01T11:45:26;145.87;;;47.57;;
11835;SDS011;5977;51.972;7.640;2023-04-01T11:48:20;146.43;;;47.63;;
11835;SDS011;5977;51.972;7.640;2023-04-01T11:51:25;145.73;;;47.50;;
11835;SDS011;5977;51.972;7.640;2023-04-01T11:54:26;145.73;;;47.57;;
11835;SDS011;5977;51.972;7.640;2023-04-01T12:00:25;145.67;;;47.50;;
11835;SDS011;5977;51.972;7.640;2023-04-01T12:03:28;145.33;;;47.33;;
11835;SDS011;5977;51.972;7.640;2023-04-01T12:06:05;145.37;;;47.37;;
11835;SDS011;5977;51.972;7.640;2023-04-01T12:08:43;146.00;;;47.50;;
11835;SDS011;5977;51.972;7.640;2023-04-01T12:11:22;145.83;;;47.57;;
11835;SDS011;5977;51.972;7.640;2023-04-01T12:13:59;145.90;;;47.47;;
11835;SDS011;5977;51.972;7.640;2023-04-01T12:19:26;146.33;;;47.80;;
11835;SDS011;5977;51.972;7.640;2023-04-01T12:22:21;146.20;;;47.70;;
11835;SDS011;5977;51.972;7.640;2023-04-01T12:25:01;145.73;;;47.50;;
11835;SDS011;5977;51.972;7.640;2023-04-01T12:27:43;145.67;;;47.57;;
11835;SDS011;5977;51.972;7.640;2023-04-01T12:30:30;146.47;;;47.70;;
11835;SDS011;5977;51.972;7.640;2023-04-01T12:33:11;145.80;;;47.47;;
11835;SDS011;5977;51.972;7.640;2023-04-01T12:36:06;145.67;;;47.53;;
11835;SDS011;5977;51.972;7.640;2023-04-01T12:38:44;145.40;;;47.40;;
11835;SDS011;5977;51.972;7.640;2023-04-01T12:41:24;145.33;;;47.27;;
11835;SDS011;5977;51.972;7.640;2023-04-01T12:47:05;146.13;;;47.60;;
11835;SDS011;5977;51.972;7.640;2023-04-01T12:49:52;145.50;;;47.40;;
11835;SDS011;5977;51.972;7.640;2023-04-01T12:52:36;146.47;;;47.80;;
11835;SDS011;5977;51.972;7.640;2023-04-01T12:55:34;145.90;;;47.50;;
11835;SDS011;5977;51.972;7.640;2023-04-01T12:58:30;145.67;;;47.30;;
11835;SDS011;5977;51.972;7.640;2023-04-01T13:01:34;145.53;;;47.33;;
11835;SDS011;5977;51.972;7.640;2023-04-01T13:07:38;145.93;;;47.50;;
11835;SDS011;5977;51.972;7.640;2023-04-01T13:10:27;144.97;;;47.07;;
11835;SDS011;5977;51.972;7.640;2023-04-01T13:13:30;144.97;;;47.20;;
11835;SDS011;5977;51.972;7.640;2023-04-01T13:16:25;145.67;;;47.53;;
11835;SDS011;5977;51.972;7.640;2023-04-01T13:18:58;145.77;;;47.47;;
11835;SDS011;5977;51.972;7.640;2023-04-01T13:21:34;145.80;;;47.50;;
11835;SDS011;5977;51.972;7.640;2023-04-01T13:24:11;145.80;;;47.43;;
11835;SDS011;5977;51.972;7.640;2023-04-01T13:26:53;145.80;;;47.50;;
11835;SDS011;5977;51.972;7.640;2023-04-01T13:29:26;145.63;;;47.33;;
11835;SDS011;5977;51.972;7.640;2023-04-01T13:32:09;145.60;;;47.37;;
11835;SDS011;5977;51.972;7.640;2023-04-01T13:34:49;146.20;;;47.60;;
11835;SDS011;5977;51.972;7.640;2023-04-01T13:37:31;145.77;;;47.57;;
11835;SDS011;5977;51.972;7.640;2023-04-01T13:40:31;146.17;;;47.53;;
11835;SDS011;5977;51.972;7.640;2023-04-01T13:43:11;145.60;;;47.30;;
11835;SDS011;5977;51.972;7.640;2023-04-01T13:45:49;146.50;;;47.80;;
11835;SDS011;5977;51.972;7.640;2023-04-01T13:48:44;145.70;;;47.47;;
11835;SDS011;5977;51.972;7.640;2023-04-01T13:54:44;145.93;;;47.50;;
11835;SDS011;5977;51.972;7.640;2023-04-01T13:57:31;145.80;;;47.57;;
11835;SDS011;5977;51.972;7.640;2023-04-01T14:00:16;145.17;;;47.23;;
11835;SDS011;5977;51.972;7.640;2023-04-01T14:02:53;146.20;;;47.70;;
11835;SDS011;5977;51.972;7.640;2023-04-01T14:05:51;145.97;;;47.57;;
11835;SDS011;5977;51.972;7.640;2023-04-01T14:08:34;146.20;;;47.70;;
11835;SDS011;5977;51.972;7.640;2023-04-01T14:11:17;146.30;;;47.70;;
11835;SDS011;5977;51.972;7.640;2023-04-01T14:13:52;146.03;;;47.63;;
11835;SDS011;5977;51.972;7.640;2023-04-01T14:16:33;146.53;;;47.90;;
11835;SDS011;5977;51.972;7.640;2023-04-01T14:19:22;146.40;;;47.63;;
11835;SDS011;5977;51.972;7.640;2023-04-01T14:21:58;146.17;;;47.70;;
11835;SDS011;5977;51.972;7.640;2023-04-01T14:24:40;146.20;;;47.67;;
11835;SDS011;5977;51.972;7.640;2023-04-01T14:27:19;146.63;;;47.80;;
11835;SDS011;5977;51.972;7.640;2023-04-01T14:30:01;146.00;;;47.50;;
11835;SDS011;5977;51.972;7.640;2023-04-01T14:32:44;146.03;;;47.50;;
11835;SDS011;5977;51.972;7.640;2023-04-01T14:35:25;146.13;;;47.60;;
11835;SDS011;5977;51.972;7.640;2023-04-01T14:38:06;145.93;;;47.50;;
11835;SDS011;5977;51.972;7.640;2023-04-01T14:40:58;145.57;;;47.27;;
11835;SDS011;5977;51.972;7.640;2023-04-01T14:43:40;146.30;;;47.63;;
11835;SDS011;5977;51.972;7.640;2023-04-01T14:46:30;145.33;;;47.13;;
11835;SDS011;5977;51.972;7.640;2023-04-01T14:49:17;146.67;;;47.87;;
11835;SDS011;5977;51.972;7.640;2023-04-01T14:51:50;146.43;;;47.80;;
11835;SDS011;5977;51.972;7.640;2023-04-01T14:54:21;146.67;;;47.67;;
11835;SDS011;5977;51.972;7.640;2023-04-01T14:57:04;146.53;;;47.97;;
11835;SDS011;5977;51.972;7.640;2023-04-01T14:59:39;147.03;;;47.93;;
11835;SDS011;5977;51.972;7.640;2023-04-01T15:02:11;146.60;;;47.80;;
11835;SDS011;5977;51.972;7.640;2023-04-01T15:04:55;146.07;;;47.53;;
11835;SDS011;5977;51.972;7.640;2023-04-01T15:07:44;146.47;;;47.67;;
11835;SDS011;5977;51.972;7.640;2023-04-01T15:10:39;146.67;;;47.83;;
11835;SDS011;5977;51.972;7.640;2023-04-01T15:16:29;146.27;;;47.47;;
11835;SDS011;5977;51.972;7.640;2023-04-01T15:19:10;146.03;;;47.50;;
11835;SDS011;5977;51.972;7.640;2023-04-01T15:21:50;146.73;;;47.87;;
11835;SDS011;5977;51.972;7.640;2023-04-01T15:24:35;146.20;;;47.57;;
11835;SDS011;5977;51.972;7.640;2023-04-01T15:27:15;146.00;;;47.53;;
11835;SDS011;5977;51.972;7.640;2023-04-01T15:32:51;146.17;;;47.57;;
11835;SDS011;5977;51.972;7.640;2023-04-01T15:35:33;146.27;;;47.70;;
11835;SDS011;5977;51.972;7.640;2023-04-01T15:38:10;146.80;;;47.90;;
11835;SDS011;5977;51.972;7.640;2023-04-01T15:40:45;146.20;;;47.50;;
11835;SDS011;5977;51.972;7.640;2023-04-01T15:43:21;146.47;;;47.80;;
11835;SDS011;5977;51.972;7.640;2023-04-01T15:46:09;145.83;;;47.50;;
11835;SDS011;5977;51.972;7.640;2023-04-01T15:48:52;146.27;;;47.60;;
11835;SDS011;5977;51.972;7.640;2023-04-01T15:54:25;145.87;;;47.50;;
11835;SDS011;5977;51.972;7.640;2023-04-01T15:57:03;146.07;;;47.60;;
11835;SDS011;5977;51.972;7.640;2023-04-01T15:59:51;145.67;;;47.37;;
11835;SDS011;5977;51.972;7.640;2023-04-01T16:02:39;146.37;;;47.67;;
11835;SDS011;5977;51.972;7.640;2023-04-01T16:05:21;146.40;;;47.73;;
11835;SDS011;5977;51.972;7.640;2023-04-01T16:08:00;145.90;;;47.60;;
11835;SDS011;5977;51.972;7.640;2023-04-01T16:10:44;145.87;;;47.43;;
11835;SDS011;5977;51.972;7.640;2023-04-01T16:13:28;145.27;;;47.27;;
11835;SDS011;5977;51.972;7.640;2023-04-01T16:16:09;146.70;;;47.83;;
11835;SDS011;5977;51.972;7.640;2023-04-01T16:21:52;145.63;;;47.40;;
11835;SDS011;5977;51.972;7.640;2023-04-01T16:24:30;145.73;;;47.40;;
11835;SDS011;5977;51.972;7.640;2023-04-01T16:27:02;146.70;;;47.80;;
11835;SDS011;5977;51.972;7.640;2023-04-01T16:29:36;146.27;;;47.70;;
11835;SDS011;5977;51.972;7.640;2023-04-01T16:32:15;146.60;;;47.77;;
11835;SDS011;5977;51.972;7.640;2023-04-01T16:34:54;145.97;;;47.50;;
11835;SDS011;5977;51.972;7.640;2023-04-01T16:37:32;145.37;;;47.33;;
11835;SDS011;5977;51.972;7.640;2023-04-01T16:40:10;146.17;;;47.60;;
11835;SDS011;5977;51.972;7.640;2023-04-01T16:42:46;145.83;;;47.43;;
11835;SDS011;5977;51.972;7.640;2023-04-01T16:45:26;145.37;;;47.30;;
11835;SDS011;5977;51.972;7.640;2023-04-01T16:48:05;146.00;;;47.50;;
11835;SDS011;5977;51.972;7.640;2023-04-01T16:50:42;145.87;;;47.37;;
11835;SDS011;5977;51.972;7.640;2023-04-01T16:53:21;145.40;;;47.37;;